createdAt,value
2022-08-03T00:00:43.051Z,1.65
2022-08-03T00:03:12.628Z,1.70
2022-08-03T00:06:03.784Z,1.77
2022-08-03T00:08:30.934Z,2.33
2022-08-03T00:11:00.875Z,1.63
2022-08-03T00:13:29.912Z,1.90
2022-08-03T00:15:58.985Z,1.70
2022-08-03T00:18:28.369Z,1.90
2022-08-03T00:20:57.521Z,1.58
2022-08-03T00:23:29.419Z,2.00
2022-08-03T00:26:15.822Z,2.53
2022-08-03T00:28:44.807Z,1.67
2022-08-03T00:31:13.933Z,2.15
2022-08-03T00:33:58.341Z,1.83
2022-08-03T00:36:32.343Z,1.95
2022-08-03T00:39:01.458Z,1.88
2022-08-03T00:41:30.905Z,1.95
2022-08-03T00:43:59.917Z,1.92
2022-08-03T00:46:28.905Z,1.70
2022-08-03T00:48:58.103Z,1.85
2022-08-03T00:51:27.191Z,2.03
2022-08-03T00:53:56.492Z,1.65
2022-08-03T00:56:25.568Z,2.08
2022-08-03T00:59:00.257Z,1.67
2022-08-03T01:01:32.535Z,2.08
2022-08-03T01:04:01.910Z,1.80
2022-08-03T01:06:42.360Z,2.08
2022-08-03T01:09:34.720Z,1.83
2022-08-03T01:12:26.255Z,1.70
2022-08-03T01:15:04.186Z,1.67
2022-08-03T01:17:49.185Z,1.20
2022-08-03T01:20:22.031Z,1.40
2022-08-03T01:23:29.000Z,1.33
2022-08-03T01:26:04.790Z,1.50
2022-08-03T01:28:36.536Z,1.30
2022-08-03T01:31:09.549Z,1.83
2022-08-03T01:33:56.609Z,1.85
2022-08-03T01:36:32.649Z,1.27
2022-08-03T01:39:04.640Z,1.55
2022-08-03T01:41:36.541Z,1.10
2022-08-03T01:44:29.112Z,1.48
2022-08-03T01:47:02.326Z,1.40
2022-08-03T01:49:39.637Z,1.50
2022-08-03T01:52:10.068Z,1.33
2022-08-03T01:54:44.094Z,1.50
2022-08-03T01:57:15.068Z,1.48
2022-08-03T01:59:45.713Z,1.48
2022-08-03T02:02:33.457Z,1.42
2022-08-03T02:05:11.068Z,1.35
2022-08-03T02:07:42.998Z,1.40
2022-08-03T02:10:15.825Z,1.40
2022-08-03T02:12:51.026Z,1.55
2022-08-03T02:15:21.542Z,1.63
2022-08-03T02:17:51.838Z,1.50
2022-08-03T02:20:22.494Z,1.85
2022-08-03T02:22:51.626Z,1.58
2022-08-03T02:25:21.120Z,1.60
2022-08-03T02:28:02.865Z,1.67
2022-08-03T02:30:40.033Z,1.50
2022-08-03T02:33:13.881Z,1.40
2022-08-03T02:35:45.172Z,1.70
2022-08-03T02:38:16.459Z,1.40
2022-08-03T02:40:46.712Z,1.55
2022-08-03T02:43:21.896Z,1.63
2022-08-03T02:45:53.086Z,1.43
2022-08-03T02:48:27.853Z,1.45
2022-08-03T02:51:00.806Z,1.60
2022-08-03T02:53:31.833Z,1.55
2022-08-03T02:56:02.359Z,1.38
2022-08-03T02:58:33.378Z,1.35
2022-08-03T03:01:04.093Z,1.60
2022-08-03T03:03:39.957Z,1.50
2022-08-03T03:06:15.220Z,1.80
2022-08-03T03:08:45.358Z,1.27
2022-08-03T03:11:16.441Z,1.50
2022-08-03T03:13:47.620Z,1.60
2022-08-03T03:16:19.265Z,1.70
2022-08-03T03:18:50.725Z,1.90
2022-08-03T03:21:22.096Z,1.60
2022-08-03T03:23:51.876Z,1.70
2022-08-03T03:26:21.321Z,2.13
2022-08-03T03:28:51.103Z,1.77
2022-08-03T03:31:20.306Z,1.75
2022-08-03T03:33:49.607Z,1.90
2022-08-03T03:36:19.635Z,1.70
2022-08-03T03:38:48.890Z,1.80
2022-08-03T03:41:17.966Z,2.08
2022-08-03T03:43:51.730Z,2.08
2022-08-03T03:46:21.343Z,2.30
2022-08-03T03:48:50.780Z,2.70
2022-08-03T03:51:20.048Z,2.83
2022-08-03T03:53:59.811Z,2.72
2022-08-03T03:56:29.905Z,2.22
2022-08-03T03:58:59.363Z,2.13
2022-08-03T04:01:28.479Z,2.13
2022-08-03T04:03:57.651Z,2.00
2022-08-03T04:06:45.402Z,1.80
2022-08-03T04:09:33.497Z,2.05
2022-08-03T04:12:03.752Z,2.03
2022-08-03T04:14:38.699Z,2.17
2022-08-03T04:17:13.597Z,2.03
2022-08-03T04:19:51.198Z,1.60
2022-08-03T04:22:25.257Z,1.42
2022-08-03T04:25:03.941Z,1.75
2022-08-03T04:27:40.060Z,1.80
2022-08-03T04:30:10.708Z,1.25
2022-08-03T04:32:45.507Z,1.85
2022-08-03T04:35:15.177Z,1.80
2022-08-03T04:37:49.705Z,1.70
2022-08-03T04:40:31.628Z,1.83
2022-08-03T04:43:01.808Z,1.60
2022-08-03T04:45:32.653Z,1.85
2022-08-03T04:48:02.095Z,1.90
2022-08-03T04:50:33.223Z,1.77
2022-08-03T04:53:08.883Z,2.10
2022-08-03T04:55:38.737Z,2.00
2022-08-03T04:58:08.123Z,1.92
2022-08-03T05:00:37.533Z,1.50
2022-08-03T05:03:20.543Z,2.08
2022-08-03T05:06:01.818Z,2.00
2022-08-03T05:08:45.961Z,2.10
2022-08-03T05:11:17.744Z,1.80
2022-08-03T05:13:47.300Z,2.10
2022-08-03T05:16:16.777Z,2.08
2022-08-03T05:18:46.844Z,2.08
2022-08-03T05:21:17.678Z,1.95
2022-08-03T05:23:47.347Z,2.40
2022-08-03T05:26:16.347Z,2.17
2022-08-03T05:28:51.119Z,2.10
2022-08-03T05:31:21.044Z,1.80
2022-08-03T05:33:50.209Z,1.95
2022-08-03T05:36:19.213Z,2.28
2022-08-03T05:38:48.539Z,1.98
2022-08-03T05:41:22.615Z,2.30
2022-08-03T05:43:54.944Z,1.85
2022-08-03T05:46:27.084Z,1.90
2022-08-03T05:48:56.330Z,1.98
2022-08-03T05:51:29.790Z,1.90
2022-08-03T05:54:01.356Z,2.10
2022-08-03T05:56:30.513Z,2.35
2022-08-03T05:59:11.382Z,1.80
2022-08-03T06:01:53.768Z,1.92
2022-08-03T06:04:34.566Z,2.08
2022-08-03T06:07:06.275Z,1.73
2022-08-03T06:10:34.492Z,2.10
2022-08-03T06:12:36.766Z,1.98
2022-08-03T06:15:11.941Z,1.85
2022-08-03T06:17:51.717Z,2.30
2022-08-03T06:20:22.311Z,2.08
2022-08-03T06:23:00.219Z,2.03
2022-08-03T06:25:31.680Z,2.17
2022-08-03T06:28:01.188Z,1.77
2022-08-03T06:30:30.479Z,2.47
2022-08-03T06:32:59.475Z,2.10
2022-08-03T06:35:30.581Z,1.90
2022-08-03T06:37:59.627Z,2.17
2022-08-03T06:40:33.069Z,2.00
2022-08-03T06:43:06.109Z,2.08
2022-08-03T06:48:09.449Z,2.10
2022-08-03T06:50:58.616Z,2.10
2022-08-03T06:53:31.225Z,2.00
2022-08-03T06:56:12.564Z,2.53
2022-08-03T06:58:45.062Z,2.00
2022-08-03T07:01:15.534Z,2.00
2022-08-03T07:03:52.233Z,2.40
2022-08-03T07:06:22.512Z,2.08
2022-08-03T07:08:53.667Z,2.38
2022-08-03T07:11:24.695Z,2.00
2022-08-03T07:13:56.015Z,2.00
2022-08-03T07:16:25.680Z,2.50
2022-08-03T07:18:57.007Z,2.38
2022-08-03T07:21:31.373Z,1.88
2022-08-03T07:24:01.461Z,2.10
2022-08-03T07:26:37.417Z,2.10
2022-08-03T07:29:10.938Z,2.28
2022-08-03T07:31:47.385Z,2.15
2022-08-03T07:34:21.917Z,2.25
2022-08-03T07:36:55.131Z,2.05
2022-08-03T07:39:24.344Z,2.13
2022-08-03T07:41:53.418Z,2.13
2022-08-03T07:44:22.907Z,2.75
2022-08-03T07:46:52.089Z,2.08
2022-08-03T07:49:25.392Z,2.42
2022-08-03T07:52:12.704Z,2.35
2022-08-03T07:54:44.517Z,2.10
2022-08-03T07:57:13.662Z,2.58
2022-08-03T07:59:56.609Z,2.47
2022-08-03T08:02:28.898Z,3.15
2022-08-03T08:05:03.489Z,2.60
2022-08-03T08:07:37.230Z,2.20
2022-08-03T08:10:08.246Z,2.05
2022-08-03T08:12:40.897Z,2.47
2022-08-03T08:15:13.215Z,2.08
2022-08-03T08:18:02.258Z,2.40
2022-08-03T08:20:40.293Z,2.38
2022-08-03T08:23:41.628Z,2.33
2022-08-03T08:26:03.582Z,1.92
2022-08-03T08:28:33.782Z,2.13
2022-08-03T08:31:03.744Z,2.58
2022-08-03T08:34:02.758Z,2.35
2022-08-03T08:36:26.680Z,2.05
2022-08-03T08:38:59.919Z,2.25
2022-08-03T08:41:35.620Z,2.33
2022-08-03T08:46:41.326Z,2.70
2022-08-03T08:49:18.948Z,2.25
2022-08-03T08:52:00.370Z,2.35
2022-08-03T08:54:34.198Z,2.28
2022-08-03T08:57:33.584Z,2.08
2022-08-03T09:00:17.452Z,2.10
2022-08-03T09:02:47.899Z,2.38
2022-08-03T09:05:22.532Z,2.25
2022-08-03T09:08:01.215Z,2.33
2022-08-03T09:10:30.713Z,2.45
2022-08-03T09:12:59.706Z,2.53
2022-08-03T09:15:32.188Z,2.38
2022-08-03T09:18:04.805Z,2.47
2022-08-03T09:20:36.005Z,2.42
2022-08-03T09:23:59.233Z,2.28
2022-08-03T09:26:02.508Z,2.30
2022-08-03T09:29:01.977Z,2.33
2022-08-03T09:31:43.263Z,1.90
2022-08-03T09:34:16.724Z,2.85
2022-08-03T09:36:48.564Z,2.05
2022-08-03T09:39:40.705Z,2.35
2022-08-03T09:42:23.717Z,2.17
2022-08-03T09:44:54.153Z,2.33
2022-08-03T09:47:35.297Z,2.30
2022-08-03T09:50:10.896Z,2.30
2022-08-03T09:52:52.370Z,2.20
2022-08-03T09:56:32.842Z,1.77
2022-08-03T09:58:11.611Z,2.03
2022-08-03T10:01:00.511Z,1.90
2022-08-03T10:03:34.704Z,2.10
2022-08-03T10:06:21.216Z,1.85
2022-08-03T10:09:16.891Z,2.47
2022-08-03T10:11:47.783Z,2.30
2022-08-03T10:14:20.036Z,2.03
2022-08-03T10:16:50.500Z,1.90
2022-08-03T10:19:20.223Z,2.03
2022-08-03T10:21:58.051Z,2.10
2022-08-03T10:24:29.632Z,1.60
2022-08-03T10:27:04.785Z,2.30
2022-08-03T10:29:39.890Z,2.08
2022-08-03T10:32:17.022Z,1.90
2022-08-03T10:34:47.777Z,2.28
2022-08-03T10:37:18.981Z,1.75
2022-08-03T10:39:55.761Z,2.05
2022-08-03T10:45:14.039Z,2.38
2022-08-03T10:47:43.745Z,1.88
2022-08-03T10:50:13.380Z,2.00
2022-08-03T10:53:03.994Z,1.80
2022-08-03T10:55:54.824Z,2.13
2022-08-03T10:58:53.267Z,2.17
2022-08-03T11:02:00.007Z,1.98
2022-08-03T11:04:30.728Z,2.10
2022-08-03T11:07:18.618Z,2.20
2022-08-03T11:09:50.185Z,2.58
2022-08-03T11:12:32.249Z,2.20
2022-08-03T11:15:06.535Z,2.20
2022-08-03T11:17:45.944Z,2.20
2022-08-03T11:20:51.547Z,2.63
2022-08-03T11:24:02.971Z,2.40
2022-08-03T11:26:31.332Z,2.00
2022-08-03T11:29:32.197Z,2.17
2022-08-03T11:32:01.259Z,2.40
2022-08-03T11:34:30.707Z,2.22
2022-08-03T11:37:22.990Z,2.22
2022-08-03T11:39:55.516Z,1.90
2022-08-03T11:42:28.374Z,2.20
2022-08-03T11:44:58.993Z,2.30
2022-08-03T11:47:31.480Z,2.40
2022-08-03T11:50:02.864Z,2.10
2022-08-03T11:52:40.657Z,2.08
2022-08-03T11:55:15.447Z,2.00
2022-08-03T11:59:10.922Z,2.25
2022-08-03T12:00:36.119Z,1.90
2022-08-03T12:03:12.816Z,2.03
2022-08-03T12:05:53.508Z,1.95
2022-08-03T12:08:30.045Z,2.22
2022-08-03T12:11:03.791Z,2.63
2022-08-03T12:14:44.124Z,2.42
2022-08-03T12:16:41.213Z,2.10
2022-08-03T12:19:10.385Z,1.95
2022-08-03T12:21:56.877Z,2.50
2022-08-03T12:24:29.347Z,2.20
2022-08-03T12:27:00.124Z,2.05
2022-08-03T12:29:30.055Z,2.70
2022-08-03T12:31:59.026Z,2.30
2022-08-03T12:34:50.036Z,2.47
2022-08-03T12:37:24.006Z,2.65
2022-08-03T12:40:05.353Z,2.55
2022-08-03T12:42:40.219Z,3.00
2022-08-03T12:45:28.523Z,2.90
2022-08-03T12:48:00.725Z,2.70
2022-08-03T12:50:31.458Z,3.08
2022-08-03T12:53:02.794Z,2.92
2022-08-03T12:55:40.206Z,2.50
2022-08-03T12:58:37.534Z,2.58
2022-08-03T13:01:10.647Z,2.60
2022-08-03T13:03:49.763Z,2.92
2022-08-03T13:06:25.285Z,3.08
2022-08-03T13:09:08.728Z,2.78
2022-08-03T13:11:57.819Z,2.80
2022-08-03T13:14:27.000Z,2.85
2022-08-03T13:16:56.085Z,2.50
2022-08-03T13:19:25.678Z,3.65
2022-08-03T13:22:04.119Z,2.47
2022-08-03T13:24:34.830Z,2.40
2022-08-03T13:27:23.366Z,2.55
2022-08-03T13:29:55.906Z,2.45
2022-08-03T13:32:25.800Z,3.00
2022-08-03T13:34:54.850Z,2.10
2022-08-03T13:37:24.554Z,3.05
2022-08-03T13:39:59.386Z,2.58
2022-08-03T13:42:31.784Z,3.75
2022-08-03T13:45:01.734Z,3.17
2022-08-03T13:47:31.151Z,2.70
2022-08-03T13:50:02.713Z,2.70
2022-08-03T13:52:34.891Z,2.42
2022-08-03T13:55:07.269Z,2.90
2022-08-03T13:58:04.545Z,2.10
2022-08-03T14:00:29.258Z,2.33
2022-08-03T14:03:16.428Z,2.72
2022-08-03T14:05:45.616Z,2.95
2022-08-03T14:08:14.758Z,2.97
2022-08-03T14:10:46.028Z,2.60
2022-08-03T14:13:17.753Z,2.83
2022-08-03T14:15:49.805Z,2.92
2022-08-03T14:18:28.322Z,3.20
2022-08-03T14:21:05.034Z,2.80
2022-08-03T14:23:36.775Z,2.90
2022-08-03T14:26:10.260Z,3.03
2022-08-03T14:28:39.593Z,2.80
2022-08-03T14:32:09.153Z,3.05
2022-08-03T14:33:58.150Z,3.13
2022-08-03T14:36:27.155Z,3.30
2022-08-03T14:39:00.886Z,3.20
2022-08-03T14:41:30.592Z,3.92
2022-08-03T14:44:00.456Z,4.10
2022-08-03T14:46:32.535Z,6.05
2022-08-03T14:50:31.595Z,5.22
2022-08-03T14:51:51.569Z,4.40
2022-08-03T14:54:23.864Z,4.30
2022-08-03T14:56:53.075Z,5.22
2022-08-03T14:59:22.118Z,4.65
2022-08-03T15:02:04.701Z,4.72
2022-08-03T15:04:37.285Z,5.32
2022-08-03T15:07:06.407Z,5.50
2022-08-03T15:09:35.527Z,6.13
2022-08-03T15:12:04.930Z,5.43
2022-08-03T15:14:34.981Z,5.55
2022-08-03T15:17:07.308Z,4.95
2022-08-03T15:20:02.078Z,5.38
2022-08-03T15:22:34.610Z,7.18
2022-08-03T15:26:06.547Z,5.90
2022-08-03T15:28:02.990Z,5.75
2022-08-03T15:30:37.650Z,5.13
2022-08-03T15:33:07.032Z,5.85
2022-08-03T15:35:36.566Z,5.85
2022-08-03T15:38:09.214Z,6.40
2022-08-03T15:40:39.607Z,5.93
2022-08-03T15:43:08.836Z,6.18
2022-08-03T15:45:38.114Z,5.97
2022-08-03T15:48:08.147Z,6.78
2022-08-03T15:50:37.487Z,5.30
2022-08-03T15:53:06.605Z,5.85
2022-08-03T15:55:35.920Z,6.45
2022-08-03T15:59:09.577Z,6.15
2022-08-03T16:00:54.066Z,7.85
2022-08-03T16:03:23.046Z,6.53
2022-08-03T16:05:52.445Z,6.28
2022-08-03T16:08:22.054Z,6.70
2022-08-03T16:10:51.301Z,6.78
2022-08-03T16:13:21.062Z,7.10
2022-08-03T16:15:50.588Z,6.38
2022-08-03T16:18:20.728Z,6.80
2022-08-03T16:20:50.141Z,6.63
2022-08-03T16:23:19.584Z,7.03
2022-08-03T16:25:49.522Z,8.35
2022-08-03T16:28:19.641Z,6.85
2022-08-03T16:30:49.312Z,6.65
2022-08-03T16:33:18.423Z,6.20
2022-08-03T16:35:50.374Z,6.68
2022-08-03T16:38:19.686Z,6.60
2022-08-03T16:40:52.672Z,5.82
2022-08-03T16:43:23.274Z,5.60
2022-08-03T16:45:53.173Z,6.82
2022-08-03T16:48:22.268Z,6.18
2022-08-03T16:50:51.289Z,7.05
2022-08-03T16:53:33.649Z,6.60
2022-08-03T16:56:11.127Z,7.10
2022-08-03T16:58:44.280Z,6.88
2022-08-03T17:01:23.955Z,7.68
2022-08-03T17:04:03.051Z,6.93
2022-08-03T17:06:44.900Z,6.53
2022-08-03T17:09:18.516Z,6.82
2022-08-03T17:11:50.500Z,6.78
2022-08-03T17:14:28.505Z,6.47
2022-08-03T17:17:02.413Z,7.22
2022-08-03T17:19:37.171Z,7.03
2022-08-03T17:22:13.682Z,6.18
2022-08-03T17:24:52.468Z,7.93
2022-08-03T17:28:49.514Z,7.32
2022-08-03T17:30:20.281Z,6.68
2022-08-03T17:32:56.665Z,6.78
2022-08-03T17:35:36.881Z,7.25
2022-08-03T17:38:13.724Z,6.70
2022-08-03T17:40:48.197Z,5.63
2022-08-03T17:44:13.534Z,6.65
2022-08-03T17:46:12.105Z,5.97
2022-08-03T17:48:42.262Z,8.55
2022-08-03T17:51:24.486Z,6.90
2022-08-03T17:54:24.773Z,7.10
2022-08-03T17:57:22.743Z,7.05
2022-08-03T18:00:26.704Z,6.47
2022-08-03T18:03:21.699Z,7.03
2022-08-03T18:06:11.789Z,7.00
2022-08-03T18:08:51.568Z,7.13
2022-08-03T18:11:37.251Z,7.07
2022-08-03T18:14:23.826Z,6.82
2022-08-03T18:16:58.861Z,7.38
2022-08-03T18:20:03.605Z,7.00
2022-08-03T18:22:25.259Z,6.70
2022-08-03T18:24:56.925Z,6.63
2022-08-03T18:27:42.394Z,6.50
2022-08-03T18:30:16.224Z,6.50
2022-08-03T18:33:01.209Z,6.40
2022-08-03T18:35:53.589Z,6.78
2022-08-03T18:38:24.524Z,6.85
2022-08-03T18:40:53.695Z,6.25
2022-08-03T18:43:46.776Z,7.78
2022-08-03T18:46:48.152Z,6.70
2022-08-03T18:49:46.242Z,6.78
2022-08-03T18:52:27.953Z,7.50
2022-08-03T18:55:20.022Z,7.20
2022-08-03T18:58:15.959Z,6.25
2022-08-03T19:01:00.062Z,6.25
2022-08-03T19:03:42.739Z,5.97
2022-08-03T19:06:29.219Z,6.18
2022-08-03T19:09:09.973Z,6.00
2022-08-03T19:14:48.239Z,5.78
2022-08-03T19:17:21.045Z,5.40
2022-08-03T19:19:53.229Z,5.85
2022-08-03T19:22:23.018Z,5.57
2022-08-03T19:24:53.868Z,5.43
2022-08-03T19:27:26.955Z,4.50
2022-08-03T19:30:02.913Z,4.45
2022-08-03T19:32:34.586Z,4.55
2022-08-03T19:35:13.350Z,4.60
2022-08-03T19:37:48.151Z,4.22
2022-08-03T19:43:12.749Z,5.20
2022-08-03T19:46:04.452Z,3.72
2022-08-03T19:48:37.498Z,3.92
2022-08-03T19:51:12.495Z,4.20
2022-08-03T19:53:45.193Z,4.82
2022-08-03T19:56:16.452Z,4.20
2022-08-03T19:58:45.866Z,3.47
2022-08-03T20:01:24.246Z,2.78
2022-08-03T20:03:57.792Z,3.55
2022-08-03T20:06:26.878Z,3.38
2022-08-03T20:08:58.683Z,3.88
2022-08-03T20:11:28.844Z,3.08
2022-08-03T20:13:59.729Z,3.05
2022-08-03T20:16:28.877Z,4.90
2022-08-03T20:18:57.920Z,3.45
2022-08-03T20:21:31.279Z,3.38
2022-08-03T20:24:23.275Z,3.38
2022-08-03T20:26:55.234Z,3.00
2022-08-03T20:30:05.342Z,3.45
2022-08-03T20:32:26.877Z,3.70
2022-08-03T20:34:55.921Z,3.03
2022-08-03T20:37:27.796Z,2.83
2022-08-03T20:39:59.624Z,3.53
2022-08-03T20:42:28.663Z,3.58
2022-08-03T20:45:05.069Z,3.20
2022-08-03T20:47:50.356Z,3.03
2022-08-03T20:50:22.877Z,2.90
2022-08-03T20:52:51.968Z,2.75
2022-08-03T20:55:48.028Z,2.92
2022-08-03T20:58:11.366Z,2.67
2022-08-03T21:00:43.305Z,3.10
2022-08-03T21:03:12.418Z,2.85
2022-08-03T21:05:48.442Z,2.90
2022-08-03T21:08:23.253Z,2.38
2022-08-03T21:10:54.636Z,2.70
2022-08-03T21:13:01.459Z,5.60
2022-08-03T21:13:09.982Z,4.07
2022-08-03T21:13:48.153Z,2.30
2022-08-03T21:16:20.803Z,3.03
2022-08-03T21:18:53.253Z,3.03
2022-08-03T21:21:24.415Z,2.40
2022-08-03T21:23:55.615Z,2.55
2022-08-03T21:26:27.315Z,3.08
2022-08-03T21:28:57.625Z,2.65
2022-08-03T21:31:27.068Z,2.22
2022-08-03T21:33:58.747Z,2.10
2022-08-03T21:36:29.763Z,2.45
2022-08-03T21:38:59.812Z,2.88
2022-08-03T21:41:31.674Z,2.00
2022-08-03T21:44:02.088Z,1.92
2022-08-03T21:46:36.532Z,2.03
2022-08-03T21:50:05.757Z,2.03
2022-08-03T21:52:04.247Z,2.17
2022-08-03T21:54:39.382Z,5.28
2022-08-03T21:57:20.633Z,2.73
2022-08-03T21:59:57.946Z,2.40
2022-08-03T22:02:32.520Z,2.38
2022-08-03T22:05:05.963Z,2.25
2022-08-03T22:07:36.042Z,2.55
2022-08-03T22:10:07.867Z,2.10
2022-08-03T22:12:37.534Z,2.10
2022-08-03T22:15:09.893Z,2.20
2022-08-03T22:17:54.748Z,2.38
2022-08-03T22:20:26.660Z,1.73
2022-08-03T22:22:58.422Z,2.10
2022-08-03T22:25:33.001Z,1.85
2022-08-03T22:28:08.872Z,1.80
2022-08-03T22:30:39.179Z,2.03
2022-08-03T22:33:11.605Z,1.92
2022-08-03T22:35:48.197Z,2.33
2022-08-03T22:38:19.462Z,2.08
2022-08-03T22:40:53.445Z,1.95
2022-08-03T22:43:27.904Z,1.95
2022-08-03T22:46:09.363Z,1.90
2022-08-03T22:48:41.615Z,1.90
2022-08-03T22:51:11.470Z,1.77
2022-08-03T22:53:41.547Z,1.73
2022-08-03T22:56:11.087Z,1.67
2022-08-03T22:58:40.168Z,1.80
2022-08-03T23:01:11.212Z,1.90
2022-08-03T23:03:58.781Z,1.90
2022-08-03T23:06:36.695Z,1.45
2022-08-03T23:09:13.137Z,1.80
2022-08-03T23:11:46.149Z,1.73
2022-08-03T23:14:17.546Z,1.45
2022-08-03T23:16:48.464Z,1.60
2022-08-03T23:19:25.036Z,1.73
2022-08-03T23:22:03.413Z,1.48
2022-08-03T23:24:37.017Z,1.20
2022-08-03T23:27:07.753Z,1.50
2022-08-03T23:29:38.346Z,1.42
2022-08-03T23:32:08.066Z,1.65
2022-08-03T23:34:58.896Z,1.33
2022-08-03T23:37:28.979Z,1.35
2022-08-03T23:39:59.596Z,1.20
2022-08-03T23:42:30.218Z,1.50
2022-08-03T23:45:05.748Z,1.17
2022-08-03T23:47:46.235Z,1.17
2022-08-03T23:50:16.990Z,0.93
2022-08-03T23:53:19.000Z,1.00
2022-08-03T23:56:21.348Z,1.13
2022-08-03T23:59:11.395Z,1.05
